Time;durP1;ratioP1;P1;durP2;ratioP2;P2;SDS_P1;SDS_P2;PMS_P1;PMS_P2;Temp;Humidity;BMP_temperature;BMP_pressure;BME280_temperature;BME280_humidity;BME280_pressure;Samples;Min_cycle;Max_cycle;Signal;HPM_P1;HPM_P2
2023/07/30 00:01:55;;;;;;;;;;;23.80;97.70;;;;;;5030653;28;20021;-65
2023/07/30 00:04:21;;;;;;;0.00;0.00;;;23.70;98.10;;;;;;5038554;28;19912;-66
2023/07/30 00:06:46;;;;;;;0.00;0.00;;;23.70;98.20;;;;;;5032874;28;20056;-66
2023/07/30 00:09:12;;;;;;;0.00;0.00;;;23.70;98.50;;;;;;5027737;28;20611;-66
2023/07/30 00:11:38;;;;;;;0.00;0.00;;;23.70;98.50;;;;;;5031327;28;20028;-66
2023/07/30 00:14:03;;;;;;;;;;;23.70;98.70;;;;;;5029707;28;20029;-66
2023/07/30 00:16:29;;;;;;;0.00;0.00;;;23.70;98.60;;;;;;5033712;28;19909;-66
2023/07/30 00:18:55;;;;;;;0.32;0.17;;;23.60;98.70;;;;;;5031223;28;20110;-67
2023/07/30 00:21:20;;;;;;;0.00;0.00;;;23.60;98.80;;;;;;5034491;28;20094;-66
2023/07/30 00:23:46;;;;;;;0.00;0.00;;;23.60;98.90;;;;;;5023552;28;20052;-66
2023/07/30 00:26:12;;;;;;;0.00;0.00;;;23.60;98.70;;;;;;5037376;28;20028;-66
2023/07/30 00:28:37;;;;;;;0.00;0.00;;;23.60;98.90;;;;;;5026064;28;20109;-66
2023/07/30 00:31:03;;;;;;;;;;;23.50;98.80;;;;;;5020400;28;20033;-66
2023/07/30 00:33:29;;;;;;;0.00;0.00;;;23.60;98.90;;;;;;5038850;28;19959;-66
2023/07/30 00:35:54;;;;;;;0.00;0.00;;;23.60;99.00;;;;;;5037616;28;20024;-66
2023/07/30 00:38:20;;;;;;;0.00;0.00;;;23.60;99.50;;;;;;5033602;28;20052;-66
2023/07/30 00:40:46;;;;;;;0.00;0.00;;;23.60;99.30;;;;;;5034130;28;20062;-66
2023/07/30 00:43:11;;;;;;;0.00;0.00;;;23.60;98.90;;;;;;5017494;28;20067;-66
2023/07/30 00:45:40;;;;;;;0.10;0.10;;;23.50;99.60;;;;;;5032262;28;20073;-66
2023/07/30 00:48:06;;;;;;;0.00;0.00;;;23.50;99.20;;;;;;5036638;28;20025;-65
2023/07/30 00:50:33;;;;;;;0.00;0.00;;;23.50;99.40;;;;;;5024481;28;20463;-66
2023/07/30 00:52:59;;;;;;;0.00;0.00;;;23.40;99.50;;;;;;5036776;28;20087;-66
2023/07/30 00:55:24;;;;;;;0.00;0.00;;;23.40;99.60;;;;;;5037437;28;20029;-66
2023/07/30 00:57:51;;;;;;;0.00;0.00;;;23.40;99.80;;;;;;5040808;28;20438;-66
2023/07/30 01:00:17;;;;;;;0.00;0.00;;;23.40;99.80;;;;;;5037152;28;20037;-66
2023/07/30 01:02:43;;;;;;;;;;;23.40;99.70;;;;;;5035446;28;20020;-66
2023/07/30 01:05:08;;;;;;;0.00;0.00;;;23.40;99.90;;;;;;5033238;28;19927;-66
2023/07/30 01:07:34;;;;;;;0.00;0.00;;;23.40;99.70;;;;;;5031472;28;20495;-65
2023/07/30 01:10:01;;;;;;;0.00;0.00;;;23.40;99.80;;;;;;5037813;28;20048;-66
2023/07/30 01:12:29;;;;;;;0.00;0.00;;;23.30;99.90;;;;;;5032154;28;20096;-66
2023/07/30 01:14:56;;;;;;;0.00;0.00;;;23.30;99.90;;;;;;5026548;28;20024;-66
2023/07/30 01:17:23;;;;;;;0.00;0.00;;;23.30;99.90;;;;;;5024525;28;20029;-66
2023/07/30 01:19:54;;;;;;;0.00;0.00;;;23.30;99.90;;;;;;5041629;28;20379;-66
2023/07/30 01:22:20;;;;;;;0.00;0.00;;;23.30;99.90;;;;;;5041494;28;20509;-66
2023/07/30 01:24:46;;;;;;;;;;;23.20;99.90;;;;;;5030252;28;20986;-66
2023/07/30 01:27:19;;;;;;;0.00;0.00;;;23.20;99.90;;;;;;5043252;28;19958;-66
2023/07/30 01:30:06;;;;;;;0.00;0.00;;;23.20;99.90;;;;;;5041115;28;20032;-66
2023/07/30 01:32:32;;;;;;;0.00;0.00;;;23.20;99.90;;;;;;5038113;28;20492;-66
2023/07/30 01:34:59;;;;;;;;;;;23.20;99.90;;;;;;5037962;28;20052;-66
2023/07/30 01:37:26;;;;;;;0.00;0.00;;;23.20;99.90;;;;;;5026137;28;19936;-66
2023/07/30 01:39:52;;;;;;;0.00;0.00;;;23.10;99.90;;;;;;5031621;28;20546;-66
2023/07/30 01:42:17;;;;;;;0.00;0.00;;;23.10;99.90;;;;;;5024495;28;20107;-66
2023/07/30 01:44:43;;;;;;;0.38;0.08;;;23.10;99.90;;;;;;5018383;28;20036;-66
2023/07/30 01:47:09;;;;;;;0.00;0.00;;;23.10;99.90;;;;;;5035938;28;20041;-66
2023/07/30 01:49:34;;;;;;;0.00;0.00;;;23.10;99.90;;;;;;5042849;28;20536;-66
2023/07/30 01:52:00;;;;;;;0.00;0.00;;;23.00;99.90;;;;;;5034178;28;20116;-66
2023/07/30 01:54:26;;;;;;;0.00;0.00;;;23.10;99.90;;;;;;5044356;28;20039;-66
2023/07/30 01:56:52;;;;;;;0.00;0.00;;;23.10;99.90;;;;;;5042607;28;20035;-66
2023/07/30 01:59:18;;;;;;;0.00;0.00;;;23.20;99.90;;;;;;5039769;28;20360;-66
2023/07/30 02:01:44;;;;;;;0.00;0.00;;;23.10;99.90;;;;;;5039170;28;20408;-66
2023/07/30 02:04:10;;;;;;;0.00;0.00;;;23.10;99.90;;;;;;5033170;28;20041;-66
2023/07/30 02:06:35;;;;;;;0.00;0.00;;;23.00;99.90;;;;;;5037762;28;20029;-66
2023/07/30 02:09:01;;;;;;;0.05;0.05;;;23.00;99.90;;;;;;5029771;28;20029;-66
2023/07/30 02:11:28;;;;;;;0.00;0.00;;;23.00;99.90;;;;;;5036836;28;20041;-66
2023/07/30 02:13:54;;;;;;;0.00;0.00;;;23.00;99.90;;;;;;5033888;28;20112;-65
2023/07/30 02:16:19;;;;;;;0.00;0.00;;;23.00;99.90;;;;;;5037948;28;20151;-66
2023/07/30 02:18:45;;;;;;;0.03;0.03;;;23.10;99.90;;;;;;5037449;28;20028;-66
2023/07/30 02:21:11;;;;;;;0.00;0.00;;;23.10;99.90;;;;;;5040176;28;20025;-66
2023/07/30 02:23:36;;;;;;;0.00;0.00;;;23.00;99.90;;;;;;5034255;28;20044;-66
2023/07/30 02:26:02;;;;;;;0.00;0.00;;;23.00;99.90;;;;;;5036939;28;20508;-66
2023/07/30 02:28:27;;;;;;;0.70;0.10;;;23.00;99.90;;;;;;5039460;28;20104;-67
2023/07/30 02:30:53;;;;;;;0.00;0.00;;;22.90;99.90;;;;;;5026752;28;20052;-66
2023/07/30 02:33:19;;;;;;;0.00;0.00;;;23.00;99.90;;;;;;5021797;28;20104;-66
2023/07/30 02:35:44;;;;;;;0.00;0.00;;;22.90;99.90;;;;;;5029799;28;20044;-66
2023/07/30 02:38:10;;;;;;;0.00;0.00;;;22.90;99.90;;;;;;5034809;28;20040;-66
2023/07/30 02:40:36;;;;;;;0.15;0.15;;;23.00;99.90;;;;;;5026841;28;20036;-66
2023/07/30 02:43:01;;;;;;;0.00;0.00;;;22.90;99.90;;;;;;5032135;28;20495;-66
2023/07/30 02:45:27;;;;;;;0.00;0.00;;;23.00;99.90;;;;;;5033725;28;20053;-66
2023/07/30 02:47:53;;;;;;;0.00;0.00;;;23.00;99.90;;;;;;5026270;28;20111;-66
2023/07/30 02:50:19;;;;;;;0.00;0.00;;;23.00;99.90;;;;;;5039965;28;20518;-66
2023/07/30 02:52:44;;;;;;;0.00;0.00;;;23.00;99.90;;;;;;5042675;28;20052;-66
2023/07/30 02:55:10;;;;;;;0.00;0.00;;;23.00;99.90;;;;;;5023562;28;20029;-66
2023/07/30 02:57:35;;;;;;;0.00;0.00;;;23.00;99.90;;;;;;5041744;28;20036;-66
2023/07/30 03:00:03;;;;;;;0.00;0.00;;;23.00;99.90;;;;;;5030489;28;20831;-66
2023/07/30 03:02:29;;;;;;;0.00;0.00;;;23.00;99.90;;;;;;5028209;28;20139;-66
2023/07/30 03:04:55;;;;;;;0.00;0.00;;;23.00;99.90;;;;;;5022763;28;20108;-66
2023/07/30 03:07:21;;;;;;;0.00;0.00;;;22.90;99.90;;;;;;5017283;28;20046;-66
2023/07/30 03:09:46;;;;;;;0.00;0.00;;;22.90;99.90;;;;;;5036136;28;20480;-66
2023/07/30 03:12:13;;;;;;;0.00;0.00;;;22.90;99.90;;;;;;5036333;28;20044;-66
2023/07/30 03:14:38;;;;;;;0.00;0.00;;;22.90;99.90;;;;;;5035589;28;20032;-66
2023/07/30 03:17:05;;;;;;;0.00;0.00;;;22.90;99.90;;;;;;5039638;28;20082;-67
2023/07/30 03:19:31;;;;;;;0.00;0.00;;;22.80;99.90;;;;;;5028694;28;20021;-66
2023/07/30 03:21:56;;;;;;;1.25;0.10;;;22.80;99.90;;;;;;5036457;28;20230;-66
2023/07/30 03:24:22;;;;;;;0.00;0.00;;;22.80;99.90;;;;;;5020910;28;20025;-66
2023/07/30 03:26:48;;;;;;;0.00;0.00;;;22.80;99.90;;;;;;5032397;28;20036;-66
2023/07/30 03:29:15;;;;;;;0.00;0.00;;;22.80;99.90;;;;;;5042215;28;20298;-66
2023/07/30 03:31:40;;;;;;;0.00;0.00;;;22.80;99.90;;;;;;5043038;28;20020;-66
2023/07/30 03:34:06;;;;;;;0.00;0.00;;;22.80;99.90;;;;;;5021362;28;21458;-66
2023/07/30 03:36:32;;;;;;;0.00;0.00;;;22.80;99.90;;;;;;5028821;28;20209;-66
2023/07/30 03:38:57;;;;;;;0.00;0.00;;;22.70;99.90;;;;;;5031391;28;20036;-66
2023/07/30 03:41:23;;;;;;;0.00;0.00;;;22.70;99.90;;;;;;5026656;28;20536;-66
2023/07/30 03:43:49;;;;;;;0.00;0.00;;;22.70;99.90;;;;;;5038202;28;20029;-66
2023/07/30 03:46:14;;;;;;;0.00;0.00;;;22.80;99.90;;;;;;5036970;28;20269;-66
2023/07/30 03:48:40;;;;;;;0.00;0.00;;;22.80;99.90;;;;;;5032369;28;20155;-66
2023/07/30 03:51:07;;;;;;;0.00;0.00;;;22.80;99.90;;;;;;5039315;28;20148;-66
2023/07/30 03:53:32;;;;;;;0.00;0.00;;;22.80;99.90;;;;;;5043611;28;20476;-66
2023/07/30 03:55:58;;;;;;;0.00;0.00;;;22.80;99.90;;;;;;5034105;28;20027;-67
2023/07/30 03:58:24;;;;;;;0.00;0.00;;;22.90;99.90;;;;;;5037636;28;20411;-66
2023/07/30 04:00:49;;;;;;;0.13;0.03;;;22.90;99.90;;;;;;5034454;28;20027;-66
2023/07/30 04:03:15;;;;;;;0.00;0.00;;;22.90;99.90;;;;;;5028486;28;20025;-66
2023/07/30 04:05:41;;;;;;;0.00;0.00;;;22.90;99.90;;;;;;5030890;28;20032;-67
2023/07/30 04:08:06;;;;;;;0.55;0.30;;;22.90;99.90;;;;;;5031876;28;21410;-66
2023/07/30 04:10:32;;;;;;;0.00;0.00;;;22.90;99.90;;;;;;5035730;28;20071;-66
2023/07/30 04:12:58;;;;;;;0.20;0.20;;;22.90;99.90;;;;;;5034935;28;20060;-67
2023/07/30 04:15:24;;;;;;;0.00;0.00;;;22.90;99.90;;;;;;5039080;28;20058;-66
2023/07/30 04:17:50;;;;;;;0.00;0.00;;;22.90;99.90;;;;;;5028231;28;20029;-66
2023/07/30 04:20:15;;;;;;;0.00;0.00;;;23.00;99.90;;;;;;5026608;28;20025;-66
2023/07/30 04:22:41;;;;;;;0.00;0.00;;;23.00;99.90;;;;;;5026929;28;20024;-66
2023/07/30 04:25:07;;;;;;;0.15;0.00;;;23.00;99.90;;;;;;5030555;28;20029;-66
2023/07/30 04:27:33;;;;;;;;;;;23.00;99.90;;;;;;5037216;28;20025;-66
2023/07/30 04:29:58;;;;;;;0.00;0.00;;;23.00;99.90;;;;;;5038792;28;20357;-66
2023/07/30 04:32:24;;;;;;;0.00;0.00;;;23.00;99.90;;;;;;5031667;28;20302;-66
2023/07/30 04:34:50;;;;;;;0.00;0.00;;;23.00;99.90;;;;;;5029862;28;20029;-66
2023/07/30 04:37:15;;;;;;;0.00;0.00;;;23.10;99.90;;;;;;5035233;28;20029;-66
2023/07/30 04:39:41;;;;;;;0.00;0.00;;;23.20;99.90;;;;;;5022822;28;20028;-67
2023/07/30 04:42:07;;;;;;;0.00;0.00;;;23.20;99.90;;;;;;5024433;28;20025;-66
2023/07/30 04:44:32;;;;;;;0.00;0.00;;;23.20;99.90;;;;;;5021870;28;20029;-67
2023/07/30 04:46:58;;;;;;;0.00;0.00;;;23.20;99.90;;;;;;5037181;28;20028;-66
2023/07/30 04:49:24;;;;;;;0.00;0.00;;;23.10;99.90;;;;;;5035499;28;20029;-66
2023/07/30 04:51:49;;;;;;;0.00;0.00;;;23.10;99.90;;;;;;5020125;28;20382;-66
2023/07/30 04:54:15;;;;;;;0.00;0.00;;;23.10;99.90;;;;;;5043683;28;20029;-66
2023/07/30 04:56:41;;;;;;;0.00;0.00;;;23.20;99.90;;;;;;5035773;28;20070;-66
2023/07/30 04:59:07;;;;;;;0.00;0.00;;;23.20;99.90;;;;;;5048910;28;20144;-66
2023/07/30 05:01:32;;;;;;;0.00;0.00;;;23.30;99.90;;;;;;5038563;28;20013;-65
2023/07/30 05:03:58;;;;;;;0.00;0.00;;;23.30;99.90;;;;;;5038854;28;20045;-65
2023/07/30 05:06:24;;;;;;;0.00;0.00;;;23.30;99.90;;;;;;5037313;28;20082;-65
2023/07/30 05:08:49;;;;;;;0.00;0.00;;;23.30;99.90;;;;;;5025363;28;20036;-65
2023/07/30 05:11:15;;;;;;;0.00;0.00;;;23.30;99.90;;;;;;5030485;28;20048;-66
2023/07/30 05:13:41;;;;;;;0.00;0.00;;;23.30;99.90;;;;;;5031379;28;20056;-66
2023/07/30 05:16:06;;;;;;;0.00;0.00;;;23.20;99.90;;;;;;5038588;28;20119;-65
2023/07/30 05:18:32;;;;;;;0.00;0.00;;;23.20;99.90;;;;;;5027287;28;20030;-66
2023/07/30 05:20:58;;;;;;;0.00;0.00;;;23.20;99.90;;;;;;5026522;28;20170;-67
2023/07/30 05:23:24;;;;;;;0.00;0.00;;;23.30;99.90;;;;;;5034728;28;20028;-67
2023/07/30 05:25:49;;;;;;;0.00;0.00;;;23.30;99.90;;;;;;5035925;28;20029;-67
2023/07/30 05:28:15;;;;;;;0.00;0.00;;;23.40;99.90;;;;;;5039486;28;20078;-67
2023/07/30 05:30:41;;;;;;;0.00;0.00;;;23.40;99.90;;;;;;5021003;28;20025;-67
2023/07/30 05:33:06;;;;;;;0.00;0.00;;;23.40;99.90;;;;;;5027719;28;20029;-67
2023/07/30 05:35:32;;;;;;;0.00;0.00;;;23.40;99.90;;;;;;5034437;28;20025;-67
2023/07/30 05:37:58;;;;;;;0.00;0.00;;;23.40;99.90;;;;;;5040623;28;20037;-67
2023/07/30 05:40:24;;;;;;;0.00;0.00;;;23.40;99.90;;;;;;5031731;28;20025;-67
2023/07/30 05:42:49;;;;;;;;;;;23.50;99.90;;;;;;5037217;28;20517;-67
2023/07/30 05:45:15;;;;;;;0.00;0.00;;;23.50;99.90;;;;;;5035557;28;19912;-67
2023/07/30 05:47:40;;;;;;;0.00;0.00;;;23.50;99.90;;;;;;5023474;28;20028;-67
2023/07/30 05:50:07;;;;;;;0.00;0.00;;;23.60;99.90;;;;;;5043848;28;20136;-67
2023/07/30 05:52:33;;;;;;;0.00;0.00;;;23.60;99.90;;;;;;5038672;28;20029;-67
2023/07/30 05:54:59;;;;;;;0.00;0.00;;;23.60;99.90;;;;;;5021585;28;20367;-67
2023/07/30 05:57:25;;;;;;;0.00;0.00;;;23.60;99.90;;;;;;5037664;28;20025;-67
2023/07/30 05:59:50;;;;;;;0.00;0.00;;;23.60;99.90;;;;;;5034487;28;20017;-67
2023/07/30 06:02:16;;;;;;;0.00;0.00;;;23.70;99.90;;;;;;5037118;28;20028;-68
2023/07/30 06:04:42;;;;;;;0.00;0.00;;;23.60;99.90;;;;;;5029602;28;20041;-67
2023/07/30 06:07:08;;;;;;;0.00;0.00;;;23.70;99.90;;;;;;5037987;28;20040;-67
2023/07/30 06:09:33;;;;;;;0.00;0.00;;;23.70;99.90;;;;;;5028787;28;20021;-67
2023/07/30 06:11:59;;;;;;;;;;;23.70;99.90;;;;;;5029117;28;20111;-67
2023/07/30 06:14:26;;;;;;;0.00;0.00;;;23.80;99.90;;;;;;5020270;28;19947;-67
2023/07/30 06:16:52;;;;;;;0.00;0.00;;;23.90;99.90;;;;;;5038946;28;20016;-67
2023/07/30 06:19:18;;;;;;;0.00;0.00;;;23.80;99.90;;;;;;5022835;28;20028;-67
2023/07/30 06:21:44;;;;;;;;;;;23.80;99.90;;;;;;5024652;28;20074;-68
2023/07/30 06:24:10;;;;;;;0.00;0.00;;;23.80;99.90;;;;;;5029514;28;20523;-67
2023/07/30 06:26:35;;;;;;;0.00;0.00;;;23.70;99.90;;;;;;5037772;28;20085;-67
2023/07/30 06:29:01;;;;;;;0.00;0.00;;;23.60;99.90;;;;;;5041424;28;20045;-67
2023/07/30 06:31:27;;;;;;;;;;;23.60;99.90;;;;;;5034101;28;20104;-67
2023/07/30 06:33:52;;;;;;;0.00;0.00;;;23.60;99.90;;;;;;5038429;28;20318;-67
2023/07/30 06:36:18;;;;;;;;;;;23.60;99.90;;;;;;5026334;28;20024;-67
2023/07/30 06:38:44;;;;;;;0.00;0.00;;;23.60;99.90;;;;;;5015023;28;19920;-68
2023/07/30 06:41:09;;;;;;;0.00;0.00;;;23.60;99.90;;;;;;5041455;28;20021;-67
2023/07/30 06:43:35;;;;;;;0.00;0.00;;;23.60;99.90;;;;;;5032771;28;20030;-67
2023/07/30 06:46:00;;;;;;;;;;;23.60;99.90;;;;;;5041560;28;20036;-67
2023/07/30 06:48:26;;;;;;;0.00;0.00;;;23.60;99.90;;;;;;5043681;28;20023;-67
2023/07/30 06:50:52;;;;;;;;;;;23.50;99.90;;;;;;5040574;28;20485;-67
2023/07/30 06:53:17;;;;;;;0.00;0.00;;;23.50;99.90;;;;;;5041565;28;19905;-67
2023/07/30 06:55:43;;;;;;;0.00;0.00;;;23.40;99.90;;;;;;5035131;28;20021;-66
2023/07/30 06:58:09;;;;;;;0.00;0.00;;;23.30;99.90;;;;;;5020387;28;20090;-67
2023/07/30 07:00:35;;;;;;;;;;;23.20;99.90;;;;;;5041921;28;20717;-69
2023/07/30 07:03:00;;;;;;;0.10;0.10;;;23.10;99.90;;;;;;5036611;28;19924;-69
2023/07/30 07:05:26;;;;;;;0.00;0.00;;;23.10;99.90;;;;;;5023837;28;20434;-71
2023/07/30 07:07:52;;;;;;;0.00;0.00;;;23.00;99.90;;;;;;5026795;28;20045;-69
2023/07/30 07:10:17;;;;;;;0.00;0.00;;;23.00;99.90;;;;;;5031360;28;20017;-71
2023/07/30 07:12:43;;;;;;;0.00;0.00;;;23.10;99.90;;;;;;5016044;28;20145;-70
2023/07/30 07:15:09;;;;;;;0.00;0.00;;;23.10;99.90;;;;;;5035871;28;20025;-75
2023/07/30 07:17:35;;;;;;;0.00;0.00;;;23.00;99.90;;;;;;5028854;28;20026;-71
2023/07/30 07:20:00;;;;;;;;;;;22.90;99.90;;;;;;5039267;28;20028;-72
2023/07/30 07:22:26;;;;;;;0.00;0.00;;;22.90;99.90;;;;;;5024196;28;19961;-71
2023/07/30 07:24:52;;;;;;;0.00;0.00;;;22.90;99.90;;;;;;5040580;28;20048;-72
2023/07/30 07:27:18;;;;;;;;;;;22.90;99.90;;;;;;5042105;28;20498;-72
2023/07/30 07:29:44;;;;;;;0.00;0.00;;;22.80;99.90;;;;;;5039749;28;19969;-73
2023/07/30 07:32:10;;;;;;;0.00;0.00;;;22.80;99.90;;;;;;5042892;28;20066;-73
2023/07/30 07:34:36;;;;;;;0.00;0.00;;;22.70;99.90;;;;;;5040610;28;20044;-71
2023/07/30 07:37:02;;;;;;;0.00;0.00;;;22.60;99.90;;;;;;5023098;28;20029;-73
2023/07/30 07:39:28;;;;;;;0.00;0.00;;;22.60;99.90;;;;;;5019501;28;20646;-72
2023/07/30 07:41:55;;;;;;;0.13;0.13;;;22.50;99.90;;;;;;5023292;28;20052;-72
2023/07/30 07:44:21;;;;;;;0.00;0.00;;;22.60;99.90;;;;;;5024638;28;20056;-73
2023/07/30 07:46:48;;;;;;;0.00;0.00;;;22.60;99.90;;;;;;5038268;28;20028;-73
2023/07/30 07:49:13;;;;;;;0.00;0.00;;;22.70;99.90;;;;;;5022023;28;20028;-72
2023/07/30 07:51:39;;;;;;;0.00;0.00;;;22.70;99.90;;;;;;5040440;28;20033;-74
2023/07/30 07:54:05;;;;;;;0.00;0.00;;;22.90;99.90;;;;;;5037977;28;20036;-73
2023/07/30 07:56:31;;;;;;;0.00;0.00;;;23.20;99.90;;;;;;5040191;28;20029;-73
2023/07/30 07:58:58;;;;;;;0.00;0.00;;;23.30;99.90;;;;;;5030582;28;20033;-74
2023/07/30 08:01:23;;;;;;;0.00;0.00;;;23.40;99.90;;;;;;5039603;28;20418;-72
2023/07/30 08:03:49;;;;;;;0.00;0.00;;;23.50;99.90;;;;;;5039673;28;20029;-71
2023/07/30 08:06:14;;;;;;;0.00;0.00;;;23.60;99.90;;;;;;5030551;28;20535;-71
2023/07/30 08:08:40;;;;;;;0.00;0.00;;;23.70;99.90;;;;;;5019840;28;20024;-75
2023/07/30 08:11:07;;;;;;;0.00;0.00;;;23.70;99.90;;;;;;5030075;28;20404;-77
2023/07/30 08:13:33;;;;;;;0.00;0.00;;;23.70;99.90;;;;;;5038753;28;20411;-72
2023/07/30 08:15:59;;;;;;;;;;;23.70;99.90;;;;;;5019769;28;20535;-71
2023/07/30 08:18:24;;;;;;;0.00;0.00;;;23.90;99.90;;;;;;5037160;28;20015;-70
2023/07/30 08:20:50;;;;;;;0.00;0.00;;;24.10;99.90;;;;;;5029954;28;20060;-73
2023/07/30 08:23:16;;;;;;;0.00;0.00;;;24.20;99.90;;;;;;5048991;28;20031;-78
2023/07/30 08:25:41;;;;;;;0.00;0.00;;;24.40;99.90;;;;;;5046975;28;20021;-69
2023/07/30 08:28:07;;;;;;;0.00;0.00;;;24.50;99.90;;;;;;5042159;28;20047;-72
2023/07/30 08:30:33;;;;;;;0.00;0.00;;;24.60;99.90;;;;;;5042738;28;20033;-73
2023/07/30 08:32:58;;;;;;;;;;;24.80;99.90;;;;;;5042953;28;20039;-68
2023/07/30 08:35:26;;;;;;;0.00;0.00;;;25.10;99.90;;;;;;5041964;28;19949;-71
2023/07/30 08:37:52;;;;;;;0.43;0.10;;;25.60;99.90;;;;;;5040068;28;20425;-72
2023/07/30 08:40:18;;;;;;;;;;;26.10;99.90;;;;;;5032936;28;20025;-73
2023/07/30 08:42:43;;;;;;;0.00;0.00;;;25.80;99.90;;;;;;5036283;28;19908;-73
2023/07/30 08:45:09;;;;;;;;;;;25.80;99.90;;;;;;5034771;28;20040;-73
2023/07/30 08:47:35;;;;;;;0.00;0.00;;;25.80;99.90;;;;;;5034239;28;19912;-72
2023/07/30 08:50:01;;;;;;;0.00;0.00;;;25.60;99.90;;;;;;5034339;28;20021;-73
2023/07/30 08:52:29;;;;;;;;;;;25.60;99.90;;;;;;5038278;28;20092;-73
2023/07/30 08:54:56;;;;;;;0.00;0.00;;;25.80;99.90;;;;;;5035592;28;20367;-74
2023/07/30 08:57:23;;;;;;;0.00;0.00;;;26.10;99.90;;;;;;5041443;28;20056;-72
2023/07/30 09:00:00;;;;;;;0.00;0.00;;;27.40;99.90;;;;;;5030756;28;20493;-73
2023/07/30 09:02:45;;;;;;;0.00;0.00;;;29.80;98.60;;;;;;5030053;28;20450;-73
2023/07/30 09:05:12;;;;;;;0.00;0.00;;;31.80;95.10;;;;;;5034676;28;20540;-73
2023/07/30 09:07:37;;;;;;;0.00;0.00;;;31.80;92.70;;;;;;5033076;28;20077;-73
2023/07/30 09:10:03;;;;;;;0.00;0.00;;;31.40;92.00;;;;;;5030862;28;20925;-73
2023/07/30 09:12:30;;;;;;;0.00;0.00;;;31.20;92.00;;;;;;5018617;28;20032;-72
2023/07/30 09:14:56;;;;;;;0.00;0.00;;;31.10;91.70;;;;;;5032170;28;20416;-72
2023/07/30 09:17:22;;;;;;;0.00;0.00;;;30.60;91.40;;;;;;5025082;28;20047;-74
2023/07/30 09:19:50;;;;;;;0.10;0.10;;;30.60;91.40;;;;;;5024235;28;20025;-73
2023/07/30 09:22:29;;;;;;;0.00;0.00;;;32.00;90.50;;;;;;5036050;28;20525;-73
2023/07/30 09:24:57;;;;;;;0.00;0.00;;;34.40;84.90;;;;;;5029834;28;20086;-73
2023/07/30 09:27:27;;;;;;;0.10;0.10;;;34.80;80.10;;;;;;5025275;28;20108;-74
2023/07/30 09:29:55;;;;;;;0.00;0.00;;;33.50;80.10;;;;;;5021761;28;20029;-73
2023/07/30 09:32:29;;;;;;;0.00;0.00;;;32.40;82.50;;;;;;5041159;28;20020;-73
2023/07/30 09:34:55;;;;;;;0.00;0.00;;;32.60;83.10;;;;;;5029768;28;20028;-73
2023/07/30 09:37:21;;;;;;;0.00;0.00;;;34.10;80.40;;;;;;5032313;28;20039;-73
2023/07/30 09:39:48;;;;;;;0.00;0.00;;;35.40;78.60;;;;;;5034205;28;20029;-73
2023/07/30 09:42:14;;;;;;;0.00;0.00;;;36.70;74.10;;;;;;5023986;28;20479;-73
2023/07/30 09:44:40;;;;;;;0.00;0.00;;;37.40;70.90;;;;;;5039862;28;20016;-72
2023/07/30 09:47:10;;;;;;;0.00;0.00;;;36.40;70.70;;;;;;5040937;28;20044;-69
2023/07/30 09:49:37;;;;;;;0.00;0.00;;;35.00;72.00;;;;;;5042800;28;20906;-70
2023/07/30 09:52:04;;;;;;;0.00;0.00;;;33.50;73.90;;;;;;5035321;28;20056;-71
2023/07/30 09:54:31;;;;;;;0.00;0.00;;;32.80;76.10;;;;;;5023753;28;20031;-70
2023/07/30 09:56:57;;;;;;;0.00;0.00;;;31.90;77.30;;;;;;5043929;28;20040;-74
2023/07/30 09:59:23;;;;;;;0.00;0.00;;;32.00;77.30;;;;;;5041691;28;20409;-74
2023/07/30 10:01:49;;;;;;;0.00;0.00;;;32.30;76.50;;;;;;5044262;28;20032;-74
2023/07/30 10:04:18;;;;;;;0.00;0.00;;;33.50;74.40;;;;;;5044662;28;20036;-74
2023/07/30 10:06:52;;;;;;;0.00;0.00;;;34.30;72.50;;;;;;5042770;28;20024;-72
2023/07/30 10:09:21;;;;;;;0.00;0.00;;;34.40;72.60;;;;;;5020452;28;20031;-73
2023/07/30 10:11:53;;;;;;;0.00;0.00;;;35.50;70.60;;;;;;5024026;28;20449;-73
2023/07/30 10:14:21;;;;;;;0.00;0.00;;;36.50;68.70;;;;;;5037096;28;20025;-74
2023/07/30 10:16:52;;;;;;;0.00;0.00;;;36.80;67.50;;;;;;5040837;28;20116;-74
2023/07/30 10:19:18;;;;;;;0.00;0.00;;;37.40;66.50;;;;;;5040388;28;20178;-73
2023/07/30 10:21:44;;;;;;;0.00;0.00;;;37.70;65.80;;;;;;5035318;28;20021;-74
2023/07/30 10:24:10;;;;;;;0.00;0.00;;;37.10;65.30;;;;;;5040384;28;20513;-73
2023/07/30 10:26:37;;;;;;;0.03;0.03;;;36.80;65.80;;;;;;5027709;28;20025;-73
2023/07/30 10:29:17;;;;;;;0.00;0.00;;;37.10;65.90;;;;;;5021276;28;20029;-74
2023/07/30 10:31:55;;;;;;;0.00;0.00;;;37.70;64.70;;;;;;5043213;28;20372;-73
2023/07/30 10:34:25;;;;;;;1.58;0.08;;;38.70;64.20;;;;;;5034792;28;20048;-74
2023/07/30 10:36:51;;;;;;;0.00;0.00;;;37.50;63.30;;;;;;5043528;28;20059;-73
2023/07/30 10:39:28;;;;;;;0.00;0.00;;;35.90;64.80;;;;;;5027079;28;20020;-75
2023/07/30 10:41:56;;;;;;;0.00;0.00;;;34.20;66.50;;;;;;5038564;28;20041;-75
2023/07/30 10:44:24;;;;;;;0.00;0.00;;;32.10;76.10;;;;;;5036313;28;20619;-74
2023/07/30 10:46:51;;;;;;;0.00;0.00;;;30.10;83.70;;;;;;5023362;28;20513;-73
2023/07/30 10:49:16;;;;;;;0.00;0.00;;;28.60;90.70;;;;;;5043730;28;20021;-72
2023/07/30 10:51:42;;;;;;;0.00;0.00;;;27.50;94.80;;;;;;5043645;28;20549;-74
2023/07/30 10:54:08;;;;;;;0.00;0.00;;;26.70;97.00;;;;;;5041688;28;20055;-70
2023/07/30 10:56:37;;;;;;;0.22;0.22;;;26.30;99.90;;;;;;5032402;28;20045;-69
2023/07/30 10:59:05;;;;;;;0.00;0.00;;;26.60;99.90;;;;;;5040651;28;20010;-68
2023/07/30 11:01:31;;;;;;;0.00;0.00;;;27.10;99.90;;;;;;5018263;28;20029;-69
2023/07/30 11:03:57;;;;;;;0.00;0.00;;;27.30;99.90;;;;;;5029614;28;20086;-70
2023/07/30 11:06:24;;;;;;;0.00;0.00;;;27.40;99.90;;;;;;5038363;28;20059;-72
2023/07/30 11:08:50;;;;;;;0.00;0.00;;;27.80;99.90;;;;;;5025208;28;20025;-72
2023/07/30 11:11:15;;;;;;;0.00;0.00;;;28.30;99.90;;;;;;5034545;28;20021;-74
2023/07/30 11:13:43;;;;;;;0.00;0.00;;;28.60;99.90;;;;;;5041580;28;20058;-74
2023/07/30 11:16:10;;;;;;;0.17;0.17;;;28.80;99.90;;;;;;5034756;28;20483;-76
2023/07/30 11:18:37;;;;;;;0.00;0.00;;;28.80;99.90;;;;;;5035288;28;20013;-73
2023/07/30 11:21:14;;;;;;;0.00;0.00;;;28.80;99.90;;;;;;5042278;28;20047;-75
2023/07/30 11:23:43;;;;;;;0.00;0.00;;;28.50;99.90;;;;;;5030921;28;20032;-76
2023/07/30 11:26:18;;;;;;;0.00;0.00;;;28.60;99.90;;;;;;5047569;28;20028;-76
2023/07/30 11:28:46;;;;;;;0.00;0.00;;;28.60;99.90;;;;;;5041720;28;20017;-76
2023/07/30 11:31:18;;;;;;;0.00;0.00;;;28.80;99.90;;;;;;5040092;28;20021;-76
2023/07/30 11:33:46;;;;;;;0.00;0.00;;;29.00;99.90;;;;;;5048257;28;20107;-76
2023/07/30 11:36:23;;;;;;;0.00;0.00;;;28.80;99.10;;;;;;5026192;28;20539;-76
2023/07/30 11:38:52;;;;;;;0.00;0.00;;;28.80;99.50;;;;;;5036240;28;20021;-74
2023/07/30 11:41:19;;;;;;;0.20;0.20;;;29.10;98.90;;;;;;5025145;28;20028;-75
2023/07/30 11:43:45;;;;;;;0.00;0.00;;;28.60;98.50;;;;;;5036684;28;20032;-75
2023/07/30 11:46:12;;;;;;;0.00;0.00;;;28.60;98.20;;;;;;5031342;28;20021;-76
2023/07/30 11:48:44;;;;;;;0.00;0.00;;;29.20;96.60;;;;;;5045268;28;20032;-74
2023/07/30 11:51:27;;;;;;;0.00;0.00;;;29.50;95.70;;;;;;5043649;28;21015;-73
2023/07/30 11:53:56;;;;;;;0.00;0.00;;;29.60;95.30;;;;;;5032199;28;20028;-73
2023/07/30 11:56:27;;;;;;;0.00;0.00;;;29.50;96.10;;;;;;5037768;28;20056;-74
2023/07/30 11:59:01;;;;;;;0.00;0.00;;;29.50;95.40;;;;;;5021152;28;20087;-74
2023/07/30 12:01:30;;;;;;;0.00;0.00;;;29.00;95.20;;;;;;5030301;28;20025;-74
2023/07/30 12:03:59;;;;;;;0.00;0.00;;;29.00;95.90;;;;;;5037777;28;20044;-73
2023/07/30 12:06:48;;;;;;;0.00;0.00;;;29.20;95.20;;;;;;5022298;28;20025;-73
2023/07/30 12:09:21;;;;;;;0.00;0.00;;;29.40;95.10;;;;;;5038882;28;20021;-73
2023/07/30 12:11:55;;;;;;;0.00;0.00;;;30.00;95.30;;;;;;5034847;28;20033;-73
2023/07/30 12:14:29;;;;;;;0.00;0.00;;;30.40;94.20;;;;;;5016926;28;20748;-73
2023/07/30 12:16:57;;;;;;;0.00;0.00;;;30.20;93.70;;;;;;5046390;28;20521;-72
2023/07/30 12:19:22;;;;;;;0.00;0.00;;;30.10;93.20;;;;;;5018477;28;20021;-73
2023/07/30 12:21:48;;;;;;;0.00;0.00;;;29.40;94.20;;;;;;5037908;28;20090;-73
2023/07/30 12:24:14;;;;;;;0.00;0.00;;;28.90;94.70;;;;;;5035728;28;20032;-73
2023/07/30 12:26:40;;;;;;;0.00;0.00;;;28.60;95.00;;;;;;5039991;28;20017;-73
2023/07/30 12:29:06;;;;;;;0.00;0.00;;;28.50;95.80;;;;;;5036481;28;20121;-73
2023/07/30 12:31:31;;;;;;;0.00;0.00;;;28.10;95.10;;;;;;5039570;28;20175;-73
2023/07/30 12:33:57;;;;;;;0.20;0.20;;;27.90;95.00;;;;;;5036623;28;20033;-73
2023/07/30 12:36:23;;;;;;;0.00;0.00;;;27.80;95.40;;;;;;5042555;28;20247;-73
2023/07/30 12:38:48;;;;;;;0.00;0.00;;;27.70;95.10;;;;;;5042596;28;20461;-72
2023/07/30 12:41:14;;;;;;;0.00;0.00;;;27.60;94.70;;;;;;5035500;28;20079;-73
2023/07/30 12:43:39;;;;;;;0.00;0.00;;;27.50;95.10;;;;;;5042453;28;20066;-70
2023/07/30 12:46:05;;;;;;;0.00;0.00;;;27.50;95.40;;;;;;5030545;28;20460;-69
2023/07/30 12:48:31;;;;;;;0.00;0.00;;;27.40;95.70;;;;;;5039164;28;20445;-69
2023/07/30 12:50:56;;;;;;;0.00;0.00;;;27.40;96.00;;;;;;5023476;28;20094;-77